sensor_id;sensor_type;location;lat;lon;timestamp;temperature;humidity
3256;DHT22;1640;48.504;9.224;2023-04-24T00:00:37;12.10;59.20
3256;DHT22;1640;48.504;9.224;2023-04-24T00:03:08;12.10;59.60
3256;DHT22;1640;48.504;9.224;2023-04-24T00:05:36;12.10;59.60
3256;DHT22;1640;48.504;9.224;2023-04-24T00:08:03;12.20;58.90
3256;DHT22;1640;48.504;9.224;2023-04-24T00:10:31;12.10;59.50
3256;DHT22;1640;48.504;9.224;2023-04-24T00:12:59;12.10;58.80
3256;DHT22;1640;48.504;9.224;2023-04-24T00:15:26;12.10;58.40
3256;DHT22;1640;48.504;9.224;2023-04-24T00:17:53;12.00;58.80
3256;DHT22;1640;48.504;9.224;2023-04-24T00:20:22;12.00;58.60
3256;DHT22;1640;48.504;9.224;2023-04-24T00:22:50;12.00;57.40
3256;DHT22;1640;48.504;9.224;2023-04-24T00:25:18;12.00;56.50
3256;DHT22;1640;48.504;9.224;2023-04-24T00:27:45;12.00;58.20
3256;DHT22;1640;48.504;9.224;2023-04-24T00:30:13;12.00;57.50
3256;DHT22;1640;48.504;9.224;2023-04-24T00:32:40;12.00;58.00
3256;DHT22;1640;48.504;9.224;2023-04-24T00:35:08;12.10;57.70
3256;DHT22;1640;48.504;9.224;2023-04-24T00:37:37;12.10;58.40
3256;DHT22;1640;48.504;9.224;2023-04-24T00:40:06;12.10;57.50
3256;DHT22;1640;48.504;9.224;2023-04-24T00:42:35;12.20;58.60
3256;DHT22;1640;48.504;9.224;2023-04-24T00:45:03;12.20;58.50
3256;DHT22;1640;48.504;9.224;2023-04-24T00:47:32;12.20;58.60
3256;DHT22;1640;48.504;9.224;2023-04-24T00:50:01;12.20;58.60
3256;DHT22;1640;48.504;9.224;2023-04-24T00:52:29;12.20;58.40
3256;DHT22;1640;48.504;9.224;2023-04-24T00:54:59;12.30;58.60
3256;DHT22;1640;48.504;9.224;2023-04-24T00:57:27;12.30;59.70
3256;DHT22;1640;48.504;9.224;2023-04-24T00:59:55;12.30;58.60
3256;DHT22;1640;48.504;9.224;2023-04-24T01:02:22;12.30;58.90
3256;DHT22;1640;48.504;9.224;2023-04-24T01:04:51;12.30;58.60
3256;DHT22;1640;48.504;9.224;2023-04-24T01:07:20;12.30;58.90
3256;DHT22;1640;48.504;9.224;2023-04-24T01:09:48;12.40;57.30
3256;DHT22;1640;48.504;9.224;2023-04-24T01:12:19;12.40;58.10
3256;DHT22;1640;48.504;9.224;2023-04-24T01:14:46;12.40;56.20
3256;DHT22;1640;48.504;9.224;2023-04-24T01:17:14;12.40;52.90
3256;DHT22;1640;48.504;9.224;2023-04-24T01:19:41;12.30;44.70
3256;DHT22;1640;48.504;9.224;2023-04-24T01:22:13;12.20;37.30
3256;DHT22;1640;48.504;9.224;2023-04-24T01:24:41;12.30;34.20
3256;DHT22;1640;48.504;9.224;2023-04-24T01:27:09;12.20;19.00
3256;DHT22;1640;48.504;9.224;2023-04-24T01:29:37;12.00;16.50
3256;DHT22;1640;48.504;9.224;2023-04-24T01:32:05;11.90;8.90
3256;DHT22;1640;48.504;9.224;2023-04-24T01:34:34;11.80;99.90
3256;DHT22;1640;48.504;9.224;2023-04-24T01:37:01;11.80;99.90
3256;DHT22;1640;48.504;9.224;2023-04-24T01:39:30;11.80;99.90
3256;DHT22;1640;48.504;9.224;2023-04-24T01:42:00;11.70;99.90
3256;DHT22;1640;48.504;9.224;2023-04-24T01:44:28;11.60;99.90
3256;DHT22;1640;48.504;9.224;2023-04-24T01:46:56;11.40;99.90
3256;DHT22;1640;48.504;9.224;2023-04-24T01:49:23;11.40;99.90
3256;DHT22;1640;48.504;9.224;2023-04-24T01:51:51;11.30;99.90
3256;DHT22;1640;48.504;9.224;2023-04-24T01:54:19;11.20;99.90
3256;DHT22;1640;48.504;9.224;2023-04-24T01:56:48;11.10;99.90
3256;DHT22;1640;48.504;9.224;2023-04-24T01:59:17;11.10;99.90
3256;DHT22;1640;48.504;9.224;2023-04-24T02:01:44;11.10;99.90
3256;DHT22;1640;48.504;9.224;2023-04-24T02:04:12;11.10;99.90
3256;DHT22;1640;48.504;9.224;2023-04-24T02:06:41;11.10;99.90
3256;DHT22;1640;48.504;9.224;2023-04-24T02:09:08;11.10;99.90
3256;DHT22;1640;48.504;9.224;2023-04-24T02:11:36;11.20;99.90
3256;DHT22;1640;48.504;9.224;2023-04-24T02:14:05;11.20;99.90
3256;DHT22;1640;48.504;9.224;2023-04-24T02:16:33;11.30;99.90
3256;DHT22;1640;48.504;9.224;2023-04-24T02:19:02;11.30;99.90
3256;DHT22;1640;48.504;9.224;2023-04-24T02:21:29;11.10;99.90
3256;DHT22;1640;48.504;9.224;2023-04-24T02:23:58;11.10;99.90
3256;DHT22;1640;48.504;9.224;2023-04-24T02:26:26;11.00;99.90
3256;DHT22;1640;48.504;9.224;2023-04-24T02:28:53;10.90;99.90
3256;DHT22;1640;48.504;9.224;2023-04-24T02:31:22;10.90;99.90
3256;DHT22;1640;48.504;9.224;2023-04-24T02:33:50;10.90;99.90
3256;DHT22;1640;48.504;9.224;2023-04-24T02:36:18;10.90;99.90
3256;DHT22;1640;48.504;9.224;2023-04-24T02:38:45;10.80;99.90
3256;DHT22;1640;48.504;9.224;2023-04-24T02:41:13;10.80;99.90
3256;DHT22;1640;48.504;9.224;2023-04-24T02:43:41;10.70;99.90
3256;DHT22;1640;48.504;9.224;2023-04-24T02:46:09;10.70;99.90
3256;DHT22;1640;48.504;9.224;2023-04-24T02:48:38;10.60;99.90
3256;DHT22;1640;48.504;9.224;2023-04-24T02:51:05;10.60;99.90
3256;DHT22;1640;48.504;9.224;2023-04-24T02:53:33;10.60;99.90
3256;DHT22;1640;48.504;9.224;2023-04-24T02:56:01;10.50;99.90
3256;DHT22;1640;48.504;9.224;2023-04-24T02:58:28;10.50;99.90
3256;DHT22;1640;48.504;9.224;2023-04-24T03:00:56;10.70;99.90
3256;DHT22;1640;48.504;9.224;2023-04-24T03:03:24;10.70;99.90
3256;DHT22;1640;48.504;9.224;2023-04-24T03:05:53;10.80;99.90
3256;DHT22;1640;48.504;9.224;2023-04-24T03:08:21;10.80;99.90
3256;DHT22;1640;48.504;9.224;2023-04-24T03:10:49;10.80;99.90
3256;DHT22;1640;48.504;9.224;2023-04-24T03:13:16;10.80;99.90
3256;DHT22;1640;48.504;9.224;2023-04-24T03:15:44;10.80;99.90
3256;DHT22;1640;48.504;9.224;2023-04-24T03:18:12;10.80;99.90
3256;DHT22;1640;48.504;9.224;2023-04-24T03:20:40;10.80;99.90
3256;DHT22;1640;48.504;9.224;2023-04-24T03:23:09;10.70;99.90
3256;DHT22;1640;48.504;9.224;2023-04-24T03:25:36;10.60;99.90
3256;DHT22;1640;48.504;9.224;2023-04-24T03:28:04;10.60;99.90
3256;DHT22;1640;48.504;9.224;2023-04-24T03:30:31;10.60;99.90
3256;DHT22;1640;48.504;9.224;2023-04-24T03:32:59;10.70;99.90
3256;DHT22;1640;48.504;9.224;2023-04-24T03:35:26;10.70;99.90
3256;DHT22;1640;48.504;9.224;2023-04-24T03:37:54;10.70;99.90
3256;DHT22;1640;48.504;9.224;2023-04-24T03:40:23;10.60;99.90
3256;DHT22;1640;48.504;9.224;2023-04-24T03:42:50;10.60;99.90
3256;DHT22;1640;48.504;9.224;2023-04-24T03:45:18;10.60;99.90
3256;DHT22;1640;48.504;9.224;2023-04-24T03:47:46;10.50;99.90
3256;DHT22;1640;48.504;9.224;2023-04-24T03:50:13;10.50;99.90
3256;DHT22;1640;48.504;9.224;2023-04-24T03:52:41;10.40;99.90
3256;DHT22;1640;48.504;9.224;2023-04-24T03:55:08;10.30;99.90
3256;DHT22;1640;48.504;9.224;2023-04-24T03:57:40;10.30;99.90
3256;DHT22;1640;48.504;9.224;2023-04-24T04:00:10;10.20;99.90
3256;DHT22;1640;48.504;9.224;2023-04-24T04:02:38;10.20;99.90
3256;DHT22;1640;48.504;9.224;2023-04-24T04:05:05;10.20;99.90
3256;DHT22;1640;48.504;9.224;2023-04-24T04:07:34;10.20;99.90
3256;DHT22;1640;48.504;9.224;2023-04-24T04:10:01;10.20;99.90
3256;DHT22;1640;48.504;9.224;2023-04-24T04:12:29;10.30;99.90
3256;DHT22;1640;48.504;9.224;2023-04-24T04:14:58;10.20;99.90
3256;DHT22;1640;48.504;9.224;2023-04-24T04:17:26;10.10;99.90
3256;DHT22;1640;48.504;9.224;2023-04-24T04:19:53;10.20;99.90
3256;DHT22;1640;48.504;9.224;2023-04-24T04:22:22;10.20;99.90
3256;DHT22;1640;48.504;9.224;2023-04-24T04:24:50;10.20;99.90
3256;DHT22;1640;48.504;9.224;2023-04-24T04:27:17;10.20;99.90
3256;DHT22;1640;48.504;9.224;2023-04-24T04:29:45;10.20;99.90
3256;DHT22;1640;48.504;9.224;2023-04-24T04:32:14;10.30;99.90
3256;DHT22;1640;48.504;9.224;2023-04-24T04:34:42;10.40;99.90
3256;DHT22;1640;48.504;9.224;2023-04-24T04:37:11;10.40;99.90
3256;DHT22;1640;48.504;9.224;2023-04-24T04:39:40;10.40;99.90
3256;DHT22;1640;48.504;9.224;2023-04-24T04:42:07;10.40;99.90
3256;DHT22;1640;48.504;9.224;2023-04-24T04:44:35;10.50;99.90
3256;DHT22;1640;48.504;9.224;2023-04-24T04:47:04;10.50;99.90
3256;DHT22;1640;48.504;9.224;2023-04-24T04:49:34;10.60;99.90
3256;DHT22;1640;48.504;9.224;2023-04-24T04:52:02;10.50;99.90
3256;DHT22;1640;48.504;9.224;2023-04-24T04:54:29;10.40;99.90
3256;DHT22;1640;48.504;9.224;2023-04-24T04:56:57;10.40;99.90
3256;DHT22;1640;48.504;9.224;2023-04-24T04:59:25;10.30;99.90
3256;DHT22;1640;48.504;9.224;2023-04-24T05:01:52;10.10;99.90
3256;DHT22;1640;48.504;9.224;2023-04-24T05:04:20;9.90;99.90
3256;DHT22;1640;48.504;9.224;2023-04-24T05:06:49;9.90;99.90
3256;DHT22;1640;48.504;9.224;2023-04-24T05:09:17;9.80;99.90
3256;DHT22;1640;48.504;9.224;2023-04-24T05:11:45;9.70;99.90
3256;DHT22;1640;48.504;9.224;2023-04-24T05:14:12;9.60;99.90
3256;DHT22;1640;48.504;9.224;2023-04-24T05:16:40;9.50;99.90
3256;DHT22;1640;48.504;9.224;2023-04-24T05:19:07;9.50;99.90
3256;DHT22;1640;48.504;9.224;2023-04-24T05:21:35;9.40;99.90
3256;DHT22;1640;48.504;9.224;2023-04-24T05:24:04;9.40;99.90
3256;DHT22;1640;48.504;9.224;2023-04-24T05:26:32;9.30;99.90
3256;DHT22;1640;48.504;9.224;2023-04-24T05:28:59;9.30;99.90
3256;DHT22;1640;48.504;9.224;2023-04-24T05:31:27;9.20;99.90
3256;DHT22;1640;48.504;9.224;2023-04-24T05:33:55;9.20;99.90
3256;DHT22;1640;48.504;9.224;2023-04-24T05:36:22;9.10;99.90
3256;DHT22;1640;48.504;9.224;2023-04-24T05:38:50;9.10;99.90
3256;DHT22;1640;48.504;9.224;2023-04-24T05:41:19;9.10;99.90
3256;DHT22;1640;48.504;9.224;2023-04-24T05:43:47;9.10;99.90
3256;DHT22;1640;48.504;9.224;2023-04-24T05:46:15;9.00;99.90
3256;DHT22;1640;48.504;9.224;2023-04-24T05:48:42;9.00;99.90
3256;DHT22;1640;48.504;9.224;2023-04-24T05:51:10;9.00;99.90
3256;DHT22;1640;48.504;9.224;2023-04-24T05:53:37;9.00;99.90
3256;DHT22;1640;48.504;9.224;2023-04-24T05:56:05;9.00;99.90
3256;DHT22;1640;48.504;9.224;2023-04-24T05:58:34;8.90;99.90
3256;DHT22;1640;48.504;9.224;2023-04-24T06:01:03;9.00;99.90
3256;DHT22;1640;48.504;9.224;2023-04-24T06:03:31;9.00;99.90
3256;DHT22;1640;48.504;9.224;2023-04-24T06:05:59;9.10;99.90
3256;DHT22;1640;48.504;9.224;2023-04-24T06:08:26;9.20;99.90
3256;DHT22;1640;48.504;9.224;2023-04-24T06:10:54;9.30;99.90
3256;DHT22;1640;48.504;9.224;2023-04-24T06:13:22;9.40;99.90
3256;DHT22;1640;48.504;9.224;2023-04-24T06:15:51;9.30;99.90
3256;DHT22;1640;48.504;9.224;2023-04-24T06:18:18;9.40;99.90
3256;DHT22;1640;48.504;9.224;2023-04-24T06:20:47;9.30;99.90
3256;DHT22;1640;48.504;9.224;2023-04-24T06:23:14;9.30;99.90
3256;DHT22;1640;48.504;9.224;2023-04-24T06:25:42;9.40;99.90
3256;DHT22;1640;48.504;9.224;2023-04-24T06:28:09;9.50;99.90
3256;DHT22;1640;48.504;9.224;2023-04-24T06:30:37;9.70;99.90
3256;DHT22;1640;48.504;9.224;2023-04-24T06:33:06;9.80;99.90
3256;DHT22;1640;48.504;9.224;2023-04-24T06:35:33;10.00;99.90
3256;DHT22;1640;48.504;9.224;2023-04-24T06:38:01;9.90;99.90
3256;DHT22;1640;48.504;9.224;2023-04-24T06:40:28;9.70;99.90
3256;DHT22;1640;48.504;9.224;2023-04-24T06:42:56;9.70;99.90
3256;DHT22;1640;48.504;9.224;2023-04-24T06:45:24;9.80;99.90
3256;DHT22;1640;48.504;9.224;2023-04-24T06:47:51;9.80;99.90
3256;DHT22;1640;48.504;9.224;2023-04-24T06:50:20;9.90;99.90
3256;DHT22;1640;48.504;9.224;2023-04-24T06:52:48;9.90;99.90
3256;DHT22;1640;48.504;9.224;2023-04-24T06:55:15;9.90;99.90
3256;DHT22;1640;48.504;9.224;2023-04-24T06:57:43;10.10;99.90
3256;DHT22;1640;48.504;9.224;2023-04-24T07:00:12;10.10;99.90
3256;DHT22;1640;48.504;9.224;2023-04-24T07:02:40;10.20;99.90
3256;DHT22;1640;48.504;9.224;2023-04-24T07:05:08;10.30;99.90
3256;DHT22;1640;48.504;9.224;2023-04-24T07:07:37;10.30;99.90
3256;DHT22;1640;48.504;9.224;2023-04-24T07:10:07;10.50;99.90
3256;DHT22;1640;48.504;9.224;2023-04-24T07:12:34;10.70;99.90
3256;DHT22;1640;48.504;9.224;2023-04-24T07:15:04;10.90;99.90
3256;DHT22;1640;48.504;9.224;2023-04-24T07:17:32;11.00;3.00
3256;DHT22;1640;48.504;9.224;2023-04-24T07:19:59;11.10;0.90
3256;DHT22;1640;48.504;9.224;2023-04-24T07:22:27;11.40;10.40
3256;DHT22;1640;48.504;9.224;2023-04-24T07:24:55;11.70;14.80
3256;DHT22;1640;48.504;9.224;2023-04-24T07:27:23;11.60;28.60
3256;DHT22;1640;48.504;9.224;2023-04-24T07:29:51;11.70;14.80
3256;DHT22;1640;48.504;9.224;2023-04-24T07:32:18;11.80;22.90
3256;DHT22;1640;48.504;9.224;2023-04-24T07:34:46;11.80;41.00
3256;DHT22;1640;48.504;9.224;2023-04-24T07:37:13;11.70;34.10
3256;DHT22;1640;48.504;9.224;2023-04-24T07:39:41;11.60;40.90
3256;DHT22;1640;48.504;9.224;2023-04-24T07:42:10;11.30;41.10
3256;DHT22;1640;48.504;9.224;2023-04-24T07:44:37;11.00;34.60
3256;DHT22;1640;48.504;9.224;2023-04-24T07:47:06;10.80;23.20
3256;DHT22;1640;48.504;9.224;2023-04-24T07:49:33;10.80;27.00
3256;DHT22;1640;48.504;9.224;2023-04-24T07:52:01;11.00;18.30
3256;DHT22;1640;48.504;9.224;2023-04-24T07:54:29;11.30;27.10
3256;DHT22;1640;48.504;9.224;2023-04-24T07:56:56;11.70;25.00
3256;DHT22;1640;48.504;9.224;2023-04-24T07:59:25;11.90;41.80
3256;DHT22;1640;48.504;9.224;2023-04-24T08:01:53;12.00;50.60
3256;DHT22;1640;48.504;9.224;2023-04-24T08:04:20;12.20;45.60
3256;DHT22;1640;48.504;9.224;2023-04-24T08:06:48;12.40;57.50
3256;DHT22;1640;48.504;9.224;2023-04-24T08:09:16;12.30;58.00
3256;DHT22;1640;48.504;9.224;2023-04-24T08:11:43;12.20;58.60
3256;DHT22;1640;48.504;9.224;2023-04-24T08:14:11;12.20;52.50
3256;DHT22;1640;48.504;9.224;2023-04-24T08:16:40;12.40;54.00
3256;DHT22;1640;48.504;9.224;2023-04-24T08:19:08;12.50;55.60
3256;DHT22;1640;48.504;9.224;2023-04-24T08:21:36;12.40;58.10
3256;DHT22;1640;48.504;9.224;2023-04-24T08:24:04;12.50;63.20
3256;DHT22;1640;48.504;9.224;2023-04-24T08:26:34;12.40;61.30
3256;DHT22;1640;48.504;9.224;2023-04-24T08:29:01;12.40;66.00
3256;DHT22;1640;48.504;9.224;2023-04-24T08:31:29;12.20;64.50
3256;DHT22;1640;48.504;9.224;2023-04-24T08:33:57;12.00;65.50
3256;DHT22;1640;48.504;9.224;2023-04-24T08:36:26;11.90;70.30
3256;DHT22;1640;48.504;9.224;2023-04-24T08:38:53;11.80;71.10
3256;DHT22;1640;48.504;9.224;2023-04-24T08:41:21;11.80;68.80
3256;DHT22;1640;48.504;9.224;2023-04-24T08:43:52;11.70;70.50
3256;DHT22;1640;48.504;9.224;2023-04-24T08:46:22;11.70;70.90
3256;DHT22;1640;48.504;9.224;2023-04-24T08:48:50;11.60;72.90
3256;DHT22;1640;48.504;9.224;2023-04-24T08:51:20;11.60;71.90
3256;DHT22;1640;48.504;9.224;2023-04-24T08:53:48;11.50;73.10
3256;DHT22;1640;48.504;9.224;2023-04-24T08:56:16;11.50;72.10
3256;DHT22;1640;48.504;9.224;2023-04-24T08:58:44;11.30;74.50
3256;DHT22;1640;48.504;9.224;2023-04-24T09:01:12;11.30;73.60
3256;DHT22;1640;48.504;9.224;2023-04-24T09:03:40;11.40;73.40
3256;DHT22;1640;48.504;9.224;2023-04-24T09:06:08;11.50;75.80
3256;DHT22;1640;48.504;9.224;2023-04-24T09:08:39;11.50;75.10
3256;DHT22;1640;48.504;9.224;2023-04-24T09:11:08;11.50;74.60
3256;DHT22;1640;48.504;9.224;2023-04-24T09:13:37;11.70;73.60
3256;DHT22;1640;48.504;9.224;2023-04-24T09:16:05;11.60;75.60
3256;DHT22;1640;48.504;9.224;2023-04-24T09:18:33;11.50;75.40
3256;DHT22;1640;48.504;9.224;2023-04-24T09:21:02;11.50;75.20
3256;DHT22;1640;48.504;9.224;2023-04-24T09:23:31;11.50;74.60
3256;DHT22;1640;48.504;9.224;2023-04-24T09:26:03;11.80;74.50
3256;DHT22;1640;48.504;9.224;2023-04-24T09:28:34;12.00;74.50
3256;DHT22;1640;48.504;9.224;2023-04-24T09:31:07;12.00;74.50
3256;DHT22;1640;48.504;9.224;2023-04-24T09:33:36;11.80;75.20
3256;DHT22;1640;48.504;9.224;2023-04-24T09:36:05;11.80;75.20
3256;DHT22;1640;48.504;9.224;2023-04-24T09:38:34;11.80;74.60
3256;DHT22;1640;48.504;9.224;2023-04-24T09:41:05;11.90;74.80
3256;DHT22;1640;48.504;9.224;2023-04-24T09:43:35;12.10;74.90
3256;DHT22;1640;48.504;9.224;2023-04-24T09:46:07;12.20;75.10
3256;DHT22;1640;48.504;9.224;2023-04-24T09:48:37;12.40;74.60
3256;DHT22;1640;48.504;9.224;2023-04-24T09:51:05;12.60;74.60
3256;DHT22;1640;48.504;9.224;2023-04-24T09:53:36;13.00;74.10
3256;DHT22;1640;48.504;9.224;2023-04-24T09:56:09;13.10;73.50
3256;DHT22;1640;48.504;9.224;2023-04-24T09:58:38;13.20;74.10
3256;DHT22;1640;48.504;9.224;2023-04-24T10:01:06;13.10;73.90
3256;DHT22;1640;48.504;9.224;2023-04-24T10:03:34;12.90;74.10
3256;DHT22;1640;48.504;9.224;2023-04-24T10:06:02;12.70;74.50
3256;DHT22;1640;48.504;9.224;2023-04-24T10:08:35;12.80;74.10
3256;DHT22;1640;48.504;9.224;2023-04-24T10:11:03;13.00;73.60
3256;DHT22;1640;48.504;9.224;2023-04-24T10:13:33;13.30;73.10
3256;DHT22;1640;48.504;9.224;2023-04-24T10:16:02;13.30;72.50
3256;DHT22;1640;48.504;9.224;2023-04-24T10:18:30;12.90;72.60
3256;DHT22;1640;48.504;9.224;2023-04-24T10:21:00;12.50;74.40
3256;DHT22;1640;48.504;9.224;2023-04-24T10:23:29;12.30;73.60
3256;DHT22;1640;48.504;9.224;2023-04-24T10:25:57;12.10;72.50
3256;DHT22;1640;48.504;9.224;2023-04-24T10:28:27;11.90;73.80
3256;DHT22;1640;48.504;9.224;2023-04-24T10:30:56;11.80;74.10
3256;DHT22;1640;48.504;9.224;2023-04-24T10:33:24;11.90;74.80
3256;DHT22;1640;48.504;9.224;2023-04-24T10:35:53;12.50;73.20
3256;DHT22;1640;48.504;9.224;2023-04-24T10:38:24;13.00;68.80
3256;DHT22;1640;48.504;9.224;2023-04-24T10:40:57;13.10;64.50
3256;DHT22;1640;48.504;9.224;2023-04-24T10:43:25;13.10;64.70
3256;DHT22;1640;48.504;9.224;2023-04-24T10:46:03;13.30;63.40
3256;DHT22;1640;48.504;9.224;2023-04-24T10:48:32;13.40;62.60
3256;DHT22;1640;48.504;9.224;2023-04-24T10:50:59;13.40;61.90
3256;DHT22;1640;48.504;9.224;2023-04-24T10:53:28;13.20;61.70
3256;DHT22;1640;48.504;9.224;2023-04-24T10:56:05;13.10;65.50
3256;DHT22;1640;48.504;9.224;2023-04-24T10:58:37;12.90;65.20
3256;DHT22;1640;48.504;9.224;2023-04-24T11:01:07;12.70;66.60
3256;DHT22;1640;48.504;9.224;2023-04-24T11:03:35;12.70;68.20
3256;DHT22;1640;48.504;9.224;2023-04-24T11:06:05;12.80;68.00
3256;DHT22;1640;48.504;9.224;2023-04-24T11:08:38;12.60;69.50
3256;DHT22;1640;48.504;9.224;2023-04-24T11:11:10;12.30;70.20
3256;DHT22;1640;48.504;9.224;2023-04-24T11:14:01;12.30;72.10
3256;DHT22;1640;48.504;9.224;2023-04-24T11:16:32;12.40;72.20
3256;DHT22;1640;48.504;9.224;2023-04-24T11:19:05;12.60;71.80
3256;DHT22;1640;48.504;9.224;2023-04-24T11:21:41;12.60;71.30
3256;DHT22;1640;48.504;9.224;2023-04-24T11:24:31;12.50;71.80
3256;DHT22;1640;48.504;9.224;2023-04-24T11:27:06;12.80;71.50
3256;DHT22;1640;48.504;9.224;2023-04-24T11:29:41;13.10;71.50
3256;DHT22;1640;48.504;9.224;2023-04-24T11:32:24;13.20;70.00
3256;DHT22;1640;48.504;9.224;2023-04-24T11:34:54;13.10;69.60
3256;DHT22;1640;48.504;9.224;2023-04-24T11:37:22;13.00;71.30
3256;DHT22;1640;48.504;9.224;2023-04-24T11:39:52;13.10;70.80
3256;DHT22;1640;48.504;9.224;2023-04-24T11:42:21;13.50;69.20
3256;DHT22;1640;48.504;9.224;2023-04-24T11:44:50;13.60;66.50
3256;DHT22;1640;48.504;9.224;2023-04-24T11:47:20;13.10;67.60
3256;DHT22;1640;48.504;9.224;2023-04-24T11:49:50;12.90;68.00
3256;DHT22;1640;48.504;9.224;2023-04-24T11:52:18;12.60;68.60
3256;DHT22;1640;48.504;9.224;2023-04-24T11:54:49;12.70;69.80
3256;DHT22;1640;48.504;9.224;2023-04-24T11:57:19;12.60;69.60
3256;DHT22;1640;48.504;9.224;2023-04-24T11:59:48;12.60;70.50
3256;DHT22;1640;48.504;9.224;2023-04-24T12:02:23;12.80;68.80
3256;DHT22;1640;48.504;9.224;2023-04-24T12:04:52;13.00;68.30
3256;DHT22;1640;48.504;9.224;2023-04-24T12:07:20;12.90;67.90
3256;DHT22;1640;48.504;9.224;2023-04-24T12:09:57;12.80;69.30
3256;DHT22;1640;48.504;9.224;2023-04-24T12:12:26;12.90;70.90
3256;DHT22;1640;48.504;9.224;2023-04-24T12:14:55;12.80;68.90
3256;DHT22;1640;48.504;9.224;2023-04-24T12:17:28;12.90;70.00
3256;DHT22;1640;48.504;9.224;2023-04-24T12:20:01;13.00;69.20
3256;DHT22;1640;48.504;9.224;2023-04-24T12:22:36;12.80;70.30
3256;DHT22;1640;48.504;9.224;2023-04-24T12:25:10;12.80;71.50
3256;DHT22;1640;48.504;9.224;2023-04-24T12:27:38;12.60;71.80
3256;DHT22;1640;48.504;9.224;2023-04-24T12:30:10;12.20;73.60
3256;DHT22;1640;48.504;9.224;2023-04-24T12:32:43;12.10;74.40
3256;DHT22;1640;48.504;9.224;2023-04-24T12:35:11;12.40;72.20
3256;DHT22;1640;48.504;9.224;2023-04-24T12:37:41;12.70;70.00
3256;DHT22;1640;48.504;9.224;2023-04-24T12:40:10;12.80;70.00
3256;DHT22;1640;48.504;9.224;2023-04-24T12:42:43;12.80;68.60
3256;DHT22;1640;48.504;9.224;2023-04-24T12:45:11;13.00;68.20
3256;DHT22;1640;48.504;9.224;2023-04-24T12:47:40;12.90;66.30
3256;DHT22;1640;48.504;9.224;2023-04-24T12:50:13;12.80;66.70
3256;DHT22;1640;48.504;9.224;2023-04-24T12:52:41;12.50;68.30
3256;DHT22;1640;48.504;9.224;2023-04-24T12:55:09;12.40;69.80
3256;DHT22;1640;48.504;9.224;2023-04-24T12:57:39;12.50;70.20
3256;DHT22;1640;48.504;9.224;2023-04-24T13:00:08;12.90;69.60
3256;DHT22;1640;48.504;9.224;2023-04-24T13:02:36;12.90;68.80
3256;DHT22;1640;48.504;9.224;2023-04-24T13:05:04;13.20;67.80
3256;DHT22;1640;48.504;9.224;2023-04-24T13:07:33;13.30;66.20
3256;DHT22;1640;48.504;9.224;2023-04-24T13:10:01;13.20;67.20
3256;DHT22;1640;48.504;9.224;2023-04-24T13:12:28;13.00;66.50
3256;DHT22;1640;48.504;9.224;2023-04-24T13:14:57;12.80;67.60
3256;DHT22;1640;48.504;9.224;2023-04-24T13:17:24;12.80;69.90
3256;DHT22;1640;48.504;9.224;2023-04-24T13:19:54;12.80;68.20
3256;DHT22;1640;48.504;9.224;2023-04-24T13:22:22;12.90;69.60
3256;DHT22;1640;48.504;9.224;2023-04-24T13:24:50;13.00;69.60
3256;DHT22;1640;48.504;9.224;2023-04-24T13:27:18;13.10;67.50
3256;DHT22;1640;48.504;9.224;2023-04-24T13:29:46;13.30;67.80
3256;DHT22;1640;48.504;9.224;2023-04-24T13:32:14;13.60;67.50
3256;DHT22;1640;48.504;9.224;2023-04-24T13:34:41;13.70;64.90
3256;DHT22;1640;48.504;9.224;2023-04-24T13:37:09;13.60;64.70
3256;DHT22;1640;48.504;9.224;2023-04-24T13:39:37;13.70;64.70
3256;DHT22;1640;48.504;9.224;2023-04-24T13:42:06;13.70;65.30
3256;DHT22;1640;48.504;9.224;2023-04-24T13:44:34;14.10;65.20
3256;DHT22;1640;48.504;9.224;2023-04-24T13:47:01;14.20;63.70
3256;DHT22;1640;48.504;9.224;2023-04-24T13:49:29;14.20;63.00
3256;DHT22;1640;48.504;9.224;2023-04-24T13:51:56;14.10;63.40
3256;DHT22;1640;48.504;9.224;2023-04-24T13:54:24;14.00;64.60
3256;DHT22;1640;48.504;9.224;2023-04-24T13:56:52;14.30;64.30
3256;DHT22;1640;48.504;9.224;2023-04-24T13:59:21;14.20;62.30
3256;DHT22;1640;48.504;9.224;2023-04-24T14:01:49;14.30;61.40
3256;DHT22;1640;48.504;9.224;2023-04-24T14:04:16;14.00;62.20
3256;DHT22;1640;48.504;9.224;2023-04-24T14:06:44;14.10;62.70
3256;DHT22;1640;48.504;9.224;2023-04-24T14:09:11;13.80;63.00
3256;DHT22;1640;48.504;9.224;2023-04-24T14:11:40;13.70;63.20
3256;DHT22;1640;48.504;9.224;2023-04-24T14:14:08;13.70;63.30
3256;DHT22;1640;48.504;9.224;2023-04-24T14:16:37;13.60;63.20
3256;DHT22;1640;48.504;9.224;2023-04-24T14:19:04;13.40;62.90
3256;DHT22;1640;48.504;9.224;2023-04-24T14:21:32;13.10;64.60
3256;DHT22;1640;48.504;9.224;2023-04-24T14:24:00;13.00;65.60
3256;DHT22;1640;48.504;9.224;2023-04-24T14:26:27;13.10;64.20
3256;DHT22;1640;48.504;9.224;2023-04-24T14:28:55;13.10;64.30
3256;DHT22;1640;48.504;9.224;2023-04-24T14:31:24;13.00;64.30
3256;DHT22;1640;48.504;9.224;2023-04-24T14:33:53;13.00;64.90
3256;DHT22;1640;48.504;9.224;2023-04-24T14:36:21;13.00;65.20
3256;DHT22;1640;48.504;9.224;2023-04-24T14:38:49;12.80;64.20
3256;DHT22;1640;48.504;9.224;2023-04-24T14:41:17;12.70;65.60
3256;DHT22;1640;48.504;9.224;2023-04-24T14:43:44;12.60;64.50
3256;DHT22;1640;48.504;9.224;2023-04-24T14:46:12;12.60;65.50
3256;DHT22;1640;48.504;9.224;2023-04-24T14:48:40;12.50;66.20
3256;DHT22;1640;48.504;9.224;2023-04-24T14:51:09;12.50;66.20
3256;DHT22;1640;48.504;9.224;2023-04-24T14:53:36;12.60;65.70
3256;DHT22;1640;48.504;9.224;2023-04-24T14:56:04;12.50;66.20
3256;DHT22;1640;48.504;9.224;2023-04-24T14:58:32;12.40;66.50
3256;DHT22;1640;48.504;9.224;2023-04-24T15:01:00;12.40;66.00
3256;DHT22;1640;48.504;9.224;2023-04-24T15:03:27;12.40;66.20
3256;DHT22;1640;48.504;9.224;2023-04-24T15:05:55;12.40;66.50
3256;DHT22;1640;48.504;9.224;2023-04-24T15:08:24;12.40;66.00
3256;DHT22;1640;48.504;9.224;2023-04-24T15:10:52;12.30;67.60
3256;DHT22;1640;48.504;9.224;2023-04-24T15:13:20;12.50;66.60
3256;DHT22;1640;48.504;9.224;2023-04-24T15:15:47;12.50;66.20
3256;DHT22;1640;48.504;9.224;2023-04-24T15:18:15;12.40;66.20
3256;DHT22;1640;48.504;9.224;2023-04-24T15:20:42;12.50;66.00
3256;DHT22;1640;48.504;9.224;2023-04-24T15:23:10;12.50;66.30
3256;DHT22;1640;48.504;9.224;2023-04-24T15:25:39;12.50;67.50
3256;DHT22;1640;48.504;9.224;2023-04-24T15:28:07;12.60;68.20
3256;DHT22;1640;48.504;9.224;2023-04-24T15:30:35;12.80;67.00
3256;DHT22;1640;48.504;9.224;2023-04-24T15:33:03;12.80;67.00
3256;DHT22;1640;48.504;9.224;2023-04-24T15:35:30;12.90;66.50
3256;DHT22;1640;48.504;9.224;2023-04-24T15:37:58;12.80;66.70
3256;DHT22;1640;48.504;9.224;2023-04-24T15:40:26;12.90;68.50
3256;DHT22;1640;48.504;9.224;2023-04-24T15:42:55;13.00;67.90
3256;DHT22;1640;48.504;9.224;2023-04-24T15:45:22;13.10;66.60
3256;DHT22;1640;48.504;9.224;2023-04-24T15:47:50;13.20;66.00
3256;DHT22;1640;48.504;9.224;2023-04-24T15:50:18;13.00;66.30
3256;DHT22;1640;48.504;9.224;2023-04-24T15:52:47;13.00;67.60
3256;DHT22;1640;48.504;9.224;2023-04-24T15:55:15;13.00;66.50
3256;DHT22;1640;48.504;9.224;2023-04-24T15:57:43;13.00;67.30
3256;DHT22;1640;48.504;9.224;2023-04-24T16:00:13;13.10;67.00
3256;DHT22;1640;48.504;9.224;2023-04-24T16:02:41;13.50;66.70
3256;DHT22;1640;48.504;9.224;2023-04-24T16:05:08;14.00;66.00
3256;DHT22;1640;48.504;9.224;2023-04-24T16:07:37;14.00;64.30
3256;DHT22;1640;48.504;9.224;2023-04-24T16:10:06;13.90;64.00
3256;DHT22;1640;48.504;9.224;2023-04-24T16:12:33;14.00;63.60